sensor_id;sensor_type;location;lat;lon;timestamp;temperature;humidity
68801;SHT31;55784;50.734;7.086;2023-09-12T00:01:08;22.75;82.46
68801;SHT31;55784;50.734;7.086;2023-09-12T00:03:34;22.74;82.62
68801;SHT31;55784;50.734;7.086;2023-09-12T00:06:01;22.67;82.62
68801;SHT31;55784;50.734;7.086;2023-09-12T00:08:27;22.63;82.70
68801;SHT31;55784;50.734;7.086;2023-09-12T00:11:06;22.61;83.05
68801;SHT31;55784;50.734;7.086;2023-09-12T00:13:35;22.57;83.06
68801;SHT31;55784;50.734;7.086;2023-09-12T00:16:01;22.47;83.17
68801;SHT31;55784;50.734;7.086;2023-09-12T00:18:26;22.36;83.66
68801;SHT31;55784;50.734;7.086;2023-09-12T00:20:52;22.33;83.57
68801;SHT31;55784;50.734;7.086;2023-09-12T00:23:18;22.29;83.60
68801;SHT31;55784;50.734;7.086;2023-09-12T00:25:43;22.28;83.52
68801;SHT31;55784;50.734;7.086;2023-09-12T00:28:09;22.21;83.62
68801;SHT31;55784;50.734;7.086;2023-09-12T00:30:34;22.19;83.61
68801;SHT31;55784;50.734;7.086;2023-09-12T00:32:59;22.14;83.38
68801;SHT31;55784;50.734;7.086;2023-09-12T00:35:25;22.14;83.27
68801;SHT31;55784;50.734;7.086;2023-09-12T00:37:50;22.12;83.28
68801;SHT31;55784;50.734;7.086;2023-09-12T00:40:15;22.06;83.14
68801;SHT31;55784;50.734;7.086;2023-09-12T00:42:41;22.06;83.14
68801;SHT31;55784;50.734;7.086;2023-09-12T00:45:06;22.02;83.20
68801;SHT31;55784;50.734;7.086;2023-09-12T00:47:32;21.99;83.28
68801;SHT31;55784;50.734;7.086;2023-09-12T00:49:59;21.98;83.07
68801;SHT31;55784;50.734;7.086;2023-09-12T00:52:26;21.95;83.08
68801;SHT31;55784;50.734;7.086;2023-09-12T00:54:54;21.90;83.15
68801;SHT31;55784;50.734;7.086;2023-09-12T00:57:21;21.88;83.09
68801;SHT31;55784;50.734;7.086;2023-09-12T00:59:48;21.83;83.06
68801;SHT31;55784;50.734;7.086;2023-09-12T01:02:14;21.82;83.01
68801;SHT31;55784;50.734;7.086;2023-09-12T01:04:40;21.82;82.86
68801;SHT31;55784;50.734;7.086;2023-09-12T01:07:06;21.79;82.74
68801;SHT31;55784;50.734;7.086;2023-09-12T01:09:32;21.81;82.78
68801;SHT31;55784;50.734;7.086;2023-09-12T01:11:59;21.74;82.74
68801;SHT31;55784;50.734;7.086;2023-09-12T01:14:24;21.72;82.78
68801;SHT31;55784;50.734;7.086;2023-09-12T01:16:50;21.65;83.36
68801;SHT31;55784;50.734;7.086;2023-09-12T01:19:15;21.59;83.20
68801;SHT31;55784;50.734;7.086;2023-09-12T01:22:21;21.57;83.13
68801;SHT31;55784;50.734;7.086;2023-09-12T01:27:48;21.49;83.40
68801;SHT31;55784;50.734;7.086;2023-09-12T01:30:21;21.45;83.61
68801;SHT31;55784;50.734;7.086;2023-09-12T01:32:48;21.41;83.60
68801;SHT31;55784;50.734;7.086;2023-09-12T01:35:14;21.39;83.55
68801;SHT31;55784;50.734;7.086;2023-09-12T01:37:39;21.35;83.60
68801;SHT31;55784;50.734;7.086;2023-09-12T01:40:05;21.27;83.76
68801;SHT31;55784;50.734;7.086;2023-09-12T01:42:36;21.24;83.85
68801;SHT31;55784;50.734;7.086;2023-09-12T01:45:02;21.15;83.96
68801;SHT31;55784;50.734;7.086;2023-09-12T01:47:29;21.11;84.05
68801;SHT31;55784;50.734;7.086;2023-09-12T01:49:56;21.06;84.23
68801;SHT31;55784;50.734;7.086;2023-09-12T01:52:24;21.04;84.34
68801;SHT31;55784;50.734;7.086;2023-09-12T01:54:50;20.97;84.62
68801;SHT31;55784;50.734;7.086;2023-09-12T01:57:17;20.96;84.58
68801;SHT31;55784;50.734;7.086;2023-09-12T01:59:42;20.88;84.63
68801;SHT31;55784;50.734;7.086;2023-09-12T02:02:08;20.90;84.86
68801;SHT31;55784;50.734;7.086;2023-09-12T02:04:33;20.88;84.83
68801;SHT31;55784;50.734;7.086;2023-09-12T02:06:58;20.86;84.95
68801;SHT31;55784;50.734;7.086;2023-09-12T02:09:24;20.80;85.12
68801;SHT31;55784;50.734;7.086;2023-09-12T02:11:50;20.77;85.01
68801;SHT31;55784;50.734;7.086;2023-09-12T02:14:16;20.76;84.95
68801;SHT31;55784;50.734;7.086;2023-09-12T02:16:43;20.77;85.02
68801;SHT31;55784;50.734;7.086;2023-09-12T02:19:08;20.72;85.16
68801;SHT31;55784;50.734;7.086;2023-09-12T02:21:33;20.72;85.23
68801;SHT31;55784;50.734;7.086;2023-09-12T02:23:58;20.66;85.44
68801;SHT31;55784;50.734;7.086;2023-09-12T02:26:24;20.59;85.75
68801;SHT31;55784;50.734;7.086;2023-09-12T02:28:49;20.56;85.83
68801;SHT31;55784;50.734;7.086;2023-09-12T02:31:14;20.52;86.01
68801;SHT31;55784;50.734;7.086;2023-09-12T02:33:40;20.47;86.09
68801;SHT31;55784;50.734;7.086;2023-09-12T02:36:05;20.44;86.16
68801;SHT31;55784;50.734;7.086;2023-09-12T02:38:31;20.35;86.68
68801;SHT31;55784;50.734;7.086;2023-09-12T02:40:56;20.32;87.03
68801;SHT31;55784;50.734;7.086;2023-09-12T02:43:21;20.35;87.34
68801;SHT31;55784;50.734;7.086;2023-09-12T02:45:47;20.30;87.56
68801;SHT31;55784;50.734;7.086;2023-09-12T02:48:12;20.26;87.60
68801;SHT31;55784;50.734;7.086;2023-09-12T02:50:37;20.26;87.45
68801;SHT31;55784;50.734;7.086;2023-09-12T02:53:03;20.28;87.22
68801;SHT31;55784;50.734;7.086;2023-09-12T02:55:28;20.28;87.16
68801;SHT31;55784;50.734;7.086;2023-09-12T02:57:53;20.25;87.44
68801;SHT31;55784;50.734;7.086;2023-09-12T03:00:19;20.23;87.41
68801;SHT31;55784;50.734;7.086;2023-09-12T03:02:45;20.28;87.18
68801;SHT31;55784;50.734;7.086;2023-09-12T03:05:10;20.25;87.27
68801;SHT31;55784;50.734;7.086;2023-09-12T03:07:36;20.22;87.50
68801;SHT31;55784;50.734;7.086;2023-09-12T03:10:01;20.15;87.73
68801;SHT31;55784;50.734;7.086;2023-09-12T03:12:27;20.16;87.66
68801;SHT31;55784;50.734;7.086;2023-09-12T03:14:52;20.13;87.59
68801;SHT31;55784;50.734;7.086;2023-09-12T03:17:17;20.11;87.79
68801;SHT31;55784;50.734;7.086;2023-09-12T03:19:43;20.11;88.02
68801;SHT31;55784;50.734;7.086;2023-09-12T03:22:08;20.08;88.25
68801;SHT31;55784;50.734;7.086;2023-09-12T03:24:34;20.05;88.27
68801;SHT31;55784;50.734;7.086;2023-09-12T03:27:00;20.06;88.37
68801;SHT31;55784;50.734;7.086;2023-09-12T03:29:25;20.02;88.65
68801;SHT31;55784;50.734;7.086;2023-09-12T03:31:50;20.08;88.83
68801;SHT31;55784;50.734;7.086;2023-09-12T03:34:16;20.08;88.54
68801;SHT31;55784;50.734;7.086;2023-09-12T03:36:41;20.11;88.26
68801;SHT31;55784;50.734;7.086;2023-09-12T03:39:06;20.13;88.16
68801;SHT31;55784;50.734;7.086;2023-09-12T03:41:34;20.08;88.21
68801;SHT31;55784;50.734;7.086;2023-09-12T03:43:59;20.05;88.16
68801;SHT31;55784;50.734;7.086;2023-09-12T03:46:25;20.01;88.33
68801;SHT31;55784;50.734;7.086;2023-09-12T03:48:50;19.99;88.39
68801;SHT31;55784;50.734;7.086;2023-09-12T03:51:15;19.95;88.58
68801;SHT31;55784;50.734;7.086;2023-09-12T03:53:41;19.93;88.55
68801;SHT31;55784;50.734;7.086;2023-09-12T03:56:07;19.95;88.58
68801;SHT31;55784;50.734;7.086;2023-09-12T03:58:33;19.98;88.47
68801;SHT31;55784;50.734;7.086;2023-09-12T04:00:59;20.02;88.51
68801;SHT31;55784;50.734;7.086;2023-09-12T04:03:24;20.02;88.50
68801;SHT31;55784;50.734;7.086;2023-09-12T04:05:50;20.01;88.59
68801;SHT31;55784;50.734;7.086;2023-09-12T04:08:16;20.02;88.51
68801;SHT31;55784;50.734;7.086;2023-09-12T04:10:42;20.01;88.42
68801;SHT31;55784;50.734;7.086;2023-09-12T04:13:07;19.99;88.31
68801;SHT31;55784;50.734;7.086;2023-09-12T04:15:33;19.99;88.31
68801;SHT31;55784;50.734;7.086;2023-09-12T04:17:58;19.91;88.61
68801;SHT31;55784;50.734;7.086;2023-09-12T04:20:24;19.91;88.48
68801;SHT31;55784;50.734;7.086;2023-09-12T04:22:50;19.95;88.43
68801;SHT31;55784;50.734;7.086;2023-09-12T04:25:15;19.95;88.40
68801;SHT31;55784;50.734;7.086;2023-09-12T04:27:41;19.92;88.65
68801;SHT31;55784;50.734;7.086;2023-09-12T04:30:07;19.93;88.59
68801;SHT31;55784;50.734;7.086;2023-09-12T04:32:33;20.01;88.41
68801;SHT31;55784;50.734;7.086;2023-09-12T04:34:58;20.05;88.25
68801;SHT31;55784;50.734;7.086;2023-09-12T04:37:23;20.09;87.97
68801;SHT31;55784;50.734;7.086;2023-09-12T04:39:49;20.15;87.77
68801;SHT31;55784;50.734;7.086;2023-09-12T04:42:20;20.16;87.78
68801;SHT31;55784;50.734;7.086;2023-09-12T04:44:46;20.22;87.68
68801;SHT31;55784;50.734;7.086;2023-09-12T04:47:11;20.25;87.59
68801;SHT31;55784;50.734;7.086;2023-09-12T04:49:39;20.29;87.58
68801;SHT31;55784;50.734;7.086;2023-09-12T04:52:08;20.32;87.60
68801;SHT31;55784;50.734;7.086;2023-09-12T04:54:33;20.32;87.49
68801;SHT31;55784;50.734;7.086;2023-09-12T04:56:58;20.32;87.39
68801;SHT31;55784;50.734;7.086;2023-09-12T04:59:23;20.35;87.35
68801;SHT31;55784;50.734;7.086;2023-09-12T05:01:49;20.32;87.26
68801;SHT31;55784;50.734;7.086;2023-09-12T05:04:25;20.35;87.14
68801;SHT31;55784;50.734;7.086;2023-09-12T05:06:53;20.29;87.23
68801;SHT31;55784;50.734;7.086;2023-09-12T05:09:19;20.26;87.33
68801;SHT31;55784;50.734;7.086;2023-09-12T05:11:44;20.25;87.28
68801;SHT31;55784;50.734;7.086;2023-09-12T05:14:09;20.16;87.34
68801;SHT31;55784;50.734;7.086;2023-09-12T05:16:34;20.11;87.60
68801;SHT31;55784;50.734;7.086;2023-09-12T05:19:00;20.08;87.51
68801;SHT31;55784;50.734;7.086;2023-09-12T05:21:25;20.06;87.63
68801;SHT31;55784;50.734;7.086;2023-09-12T05:23:50;20.09;87.61
68801;SHT31;55784;50.734;7.086;2023-09-12T05:26:16;20.06;87.64
68801;SHT31;55784;50.734;7.086;2023-09-12T05:28:41;20.04;87.84
68801;SHT31;55784;50.734;7.086;2023-09-12T05:31:06;20.04;87.80
68801;SHT31;55784;50.734;7.086;2023-09-12T05:33:32;19.99;87.90
68801;SHT31;55784;50.734;7.086;2023-09-12T05:35:57;19.98;87.94
68801;SHT31;55784;50.734;7.086;2023-09-12T05:38:23;20.02;88.08
68801;SHT31;55784;50.734;7.086;2023-09-12T05:40:48;20.09;87.88
68801;SHT31;55784;50.734;7.086;2023-09-12T05:43:15;20.05;87.94
68801;SHT31;55784;50.734;7.086;2023-09-12T05:45:41;20.08;88.35
68801;SHT31;55784;50.734;7.086;2023-09-12T05:48:07;20.11;88.39
68801;SHT31;55784;50.734;7.086;2023-09-12T05:50:32;20.16;88.14
68801;SHT31;55784;50.734;7.086;2023-09-12T05:53:00;20.22;87.86
68801;SHT31;55784;50.734;7.086;2023-09-12T05:55:28;20.30;87.67
68801;SHT31;55784;50.734;7.086;2023-09-12T05:57:54;20.28;87.83
68801;SHT31;55784;50.734;7.086;2023-09-12T06:00:20;20.30;87.74
68801;SHT31;55784;50.734;7.086;2023-09-12T06:02:46;20.37;87.60
68801;SHT31;55784;50.734;7.086;2023-09-12T06:05:12;20.36;87.65
68801;SHT31;55784;50.734;7.086;2023-09-12T06:07:37;20.37;87.82
68801;SHT31;55784;50.734;7.086;2023-09-12T06:10:06;20.44;87.50
68801;SHT31;55784;50.734;7.086;2023-09-12T06:12:31;20.47;87.36
68801;SHT31;55784;50.734;7.086;2023-09-12T06:14:58;20.60;87.13
68801;SHT31;55784;50.734;7.086;2023-09-12T06:17:23;20.57;87.23
68801;SHT31;55784;50.734;7.086;2023-09-12T06:19:49;20.62;87.19
68801;SHT31;55784;50.734;7.086;2023-09-12T06:22:17;20.64;86.96
68801;SHT31;55784;50.734;7.086;2023-09-12T06:24:43;20.73;86.75
68801;SHT31;55784;50.734;7.086;2023-09-12T06:27:09;20.84;86.66
68801;SHT31;55784;50.734;7.086;2023-09-12T06:29:34;20.93;86.36
68801;SHT31;55784;50.734;7.086;2023-09-12T06:32:00;21.04;85.88
68801;SHT31;55784;50.734;7.086;2023-09-12T06:34:27;21.21;85.50
68801;SHT31;55784;50.734;7.086;2023-09-12T06:36:52;21.30;85.15
68801;SHT31;55784;50.734;7.086;2023-09-12T06:39:18;21.48;84.74
68801;SHT31;55784;50.734;7.086;2023-09-12T06:41:43;21.38;84.78
68801;SHT31;55784;50.734;7.086;2023-09-12T06:44:08;21.44;84.75
68801;SHT31;55784;50.734;7.086;2023-09-12T06:46:34;21.42;84.78
68801;SHT31;55784;50.734;7.086;2023-09-12T06:49:02;21.41;84.82
68801;SHT31;55784;50.734;7.086;2023-09-12T06:51:28;21.65;84.32
68801;SHT31;55784;50.734;7.086;2023-09-12T06:53:53;21.58;84.47
68801;SHT31;55784;50.734;7.086;2023-09-12T06:56:19;21.85;83.76
68801;SHT31;55784;50.734;7.086;2023-09-12T06:58:44;21.85;83.60
68801;SHT31;55784;50.734;7.086;2023-09-12T07:01:09;21.66;84.04
68801;SHT31;55784;50.734;7.086;2023-09-12T07:03:35;21.65;84.26
68801;SHT31;55784;50.734;7.086;2023-09-12T07:06:02;21.90;83.77
68801;SHT31;55784;50.734;7.086;2023-09-12T07:08:29;22.08;83.34
68801;SHT31;55784;50.734;7.086;2023-09-12T07:10:55;22.20;82.92
68801;SHT31;55784;50.734;7.086;2023-09-12T07:13:22;22.30;82.63
68801;SHT31;55784;50.734;7.086;2023-09-12T07:15:47;22.30;82.70
68801;SHT31;55784;50.734;7.086;2023-09-12T07:18:13;22.61;81.80
68801;SHT31;55784;50.734;7.086;2023-09-12T07:20:41;22.75;81.45
68801;SHT31;55784;50.734;7.086;2023-09-12T07:23:09;22.87;81.07
68801;SHT31;55784;50.734;7.086;2023-09-12T07:25:41;23.08;80.74
68801;SHT31;55784;50.734;7.086;2023-09-12T07:28:08;22.64;81.71
68801;SHT31;55784;50.734;7.086;2023-09-12T07:30:36;22.84;81.28
68801;SHT31;55784;50.734;7.086;2023-09-12T07:33:03;22.77;81.68
68801;SHT31;55784;50.734;7.086;2023-09-12T07:35:29;22.73;81.56
68801;SHT31;55784;50.734;7.086;2023-09-12T07:37:55;22.47;82.66
68801;SHT31;55784;50.734;7.086;2023-09-12T07:40:21;22.78;81.89
68801;SHT31;55784;50.734;7.086;2023-09-12T07:42:46;23.19;80.97
68801;SHT31;55784;50.734;7.086;2023-09-12T07:45:11;23.38;79.90
68801;SHT31;55784;50.734;7.086;2023-09-12T07:47:38;23.37;80.12
68801;SHT31;55784;50.734;7.086;2023-09-12T07:50:04;23.52;79.92
68801;SHT31;55784;50.734;7.086;2023-09-12T07:52:32;23.82;79.29
68801;SHT31;55784;50.734;7.086;2023-09-12T07:55:01;24.14;78.02
68801;SHT31;55784;50.734;7.086;2023-09-12T07:57:28;24.18;77.72
68801;SHT31;55784;50.734;7.086;2023-09-12T07:59:53;23.95;78.57
68801;SHT31;55784;50.734;7.086;2023-09-12T08:02:19;24.00;78.42
68801;SHT31;55784;50.734;7.086;2023-09-12T08:04:44;24.10;78.27
68801;SHT31;55784;50.734;7.086;2023-09-12T08:07:09;24.16;77.96
68801;SHT31;55784;50.734;7.086;2023-09-12T08:09:55;23.65;79.05
68801;SHT31;55784;50.734;7.086;2023-09-12T08:12:22;23.69;79.37
68801;SHT31;55784;50.734;7.086;2023-09-12T08:14:48;23.96;78.81
68801;SHT31;55784;50.734;7.086;2023-09-12T08:17:14;24.26;78.18
68801;SHT31;55784;50.734;7.086;2023-09-12T08:19:39;24.48;77.09
68801;SHT31;55784;50.734;7.086;2023-09-12T08:22:05;24.63;76.29
68801;SHT31;55784;50.734;7.086;2023-09-12T08:24:31;24.50;76.69
68801;SHT31;55784;50.734;7.086;2023-09-12T08:26:56;24.00;77.96
68801;SHT31;55784;50.734;7.086;2023-09-12T08:29:22;23.69;78.61
68801;SHT31;55784;50.734;7.086;2023-09-12T08:31:47;23.99;78.04
68801;SHT31;55784;50.734;7.086;2023-09-12T08:34:13;23.82;78.29
68801;SHT31;55784;50.734;7.086;2023-09-12T08:36:38;23.83;78.25
68801;SHT31;55784;50.734;7.086;2023-09-12T08:39:04;24.00;77.78
68801;SHT31;55784;50.734;7.086;2023-09-12T08:41:30;23.49;79.14
68801;SHT31;55784;50.734;7.086;2023-09-12T08:43:56;23.59;78.95
68801;SHT31;55784;50.734;7.086;2023-09-12T08:46:22;23.83;78.46
68801;SHT31;55784;50.734;7.086;2023-09-12T08:48:49;23.87;78.26
68801;SHT31;55784;50.734;7.086;2023-09-12T08:51:14;24.06;77.61
68801;SHT31;55784;50.734;7.086;2023-09-12T08:53:40;24.21;77.29
68801;SHT31;55784;50.734;7.086;2023-09-12T08:56:06;24.37;76.90
68801;SHT31;55784;50.734;7.086;2023-09-12T08:58:32;24.51;76.48
68801;SHT31;55784;50.734;7.086;2023-09-12T09:00:59;24.44;76.49
68801;SHT31;55784;50.734;7.086;2023-09-12T09:03:25;24.61;76.53
68801;SHT31;55784;50.734;7.086;2023-09-12T09:05:52;24.87;75.90
68801;SHT31;55784;50.734;7.086;2023-09-12T09:08:18;24.57;75.91
68801;SHT31;55784;50.734;7.086;2023-09-12T09:10:58;24.92;75.37
68801;SHT31;55784;50.734;7.086;2023-09-12T09:13:25;25.23;74.95
68801;SHT31;55784;50.734;7.086;2023-09-12T09:16:15;25.53;73.80
68801;SHT31;55784;50.734;7.086;2023-09-12T09:19:03;25.69;72.99
68801;SHT31;55784;50.734;7.086;2023-09-12T09:21:32;25.87;72.89
68801;SHT31;55784;50.734;7.086;2023-09-12T09:24:00;25.66;73.08
68801;SHT31;55784;50.734;7.086;2023-09-12T09:26:41;25.84;72.97
68801;SHT31;55784;50.734;7.086;2023-09-12T09:29:09;25.46;73.54
68801;SHT31;55784;50.734;7.086;2023-09-12T09:31:34;25.40;73.67
68801;SHT31;55784;50.734;7.086;2023-09-12T09:34:00;25.58;73.54
68801;SHT31;55784;50.734;7.086;2023-09-12T09:36:27;25.63;73.10
68801;SHT31;55784;50.734;7.086;2023-09-12T09:38:54;25.02;74.36
68801;SHT31;55784;50.734;7.086;2023-09-12T09:41:20;25.16;74.52
68801;SHT31;55784;50.734;7.086;2023-09-12T09:43:49;25.36;73.40
68801;SHT31;55784;50.734;7.086;2023-09-12T09:46:16;25.35;73.33
68801;SHT31;55784;50.734;7.086;2023-09-12T09:48:48;25.56;72.81
68801;SHT31;55784;50.734;7.086;2023-09-12T09:51:14;25.69;72.58
68801;SHT31;55784;50.734;7.086;2023-09-12T09:53:39;25.82;72.27
68801;SHT31;55784;50.734;7.086;2023-09-12T09:56:08;26.18;71.75
68801;SHT31;55784;50.734;7.086;2023-09-12T09:58:36;26.27;71.00
68801;SHT31;55784;50.734;7.086;2023-09-12T10:01:01;25.69;72.80
68801;SHT31;55784;50.734;7.086;2023-09-12T10:03:29;25.76;71.96
68801;SHT31;55784;50.734;7.086;2023-09-12T10:06:00;25.36;73.14
68801;SHT31;55784;50.734;7.086;2023-09-12T10:08:28;25.86;71.77
68801;SHT31;55784;50.734;7.086;2023-09-12T10:10:54;26.20;70.93
68801;SHT31;55784;50.734;7.086;2023-09-12T10:13:20;26.17;70.83
68801;SHT31;55784;50.734;7.086;2023-09-12T10:15:47;26.41;70.71
68801;SHT31;55784;50.734;7.086;2023-09-12T10:18:17;26.48;70.89
68801;SHT31;55784;50.734;7.086;2023-09-12T10:20:55;26.03;71.14
68801;SHT31;55784;50.734;7.086;2023-09-12T10:23:30;25.89;71.59
68801;SHT31;55784;50.734;7.086;2023-09-12T10:25:59;26.00;71.38
68801;SHT31;55784;50.734;7.086;2023-09-12T10:28:25;26.00;71.35
68801;SHT31;55784;50.734;7.086;2023-09-12T10:30:52;25.59;72.57
68801;SHT31;55784;50.734;7.086;2023-09-12T10:33:19;25.76;72.24
68801;SHT31;55784;50.734;7.086;2023-09-12T10:35:45;26.00;71.56
68801;SHT31;55784;50.734;7.086;2023-09-12T10:38:11;25.70;72.03
68801;SHT31;55784;50.734;7.086;2023-09-12T10:40:40;25.33;72.78
68801;SHT31;55784;50.734;7.086;2023-09-12T10:43:06;25.32;73.03
68801;SHT31;55784;50.734;7.086;2023-09-12T10:45:35;25.36;73.03
68801;SHT31;55784;50.734;7.086;2023-09-12T10:48:02;25.42;72.57
68801;SHT31;55784;50.734;7.086;2023-09-12T10:50:28;25.54;72.27
68801;SHT31;55784;50.734;7.086;2023-09-12T10:52:53;26.05;71.05
68801;SHT31;55784;50.734;7.086;2023-09-12T10:55:19;26.24;70.39
68801;SHT31;55784;50.734;7.086;2023-09-12T10:58:04;26.33;70.51
68801;SHT31;55784;50.734;7.086;2023-09-12T11:00:29;26.16;70.82
68801;SHT31;55784;50.734;7.086;2023-09-12T11:02:59;26.48;70.88
68801;SHT31;55784;50.734;7.086;2023-09-12T11:08:00;26.00;70.97
68801;SHT31;55784;50.734;7.086;2023-09-12T11:10:26;26.03;71.26
68801;SHT31;55784;50.734;7.086;2023-09-12T11:13:17;26.17;70.45
68801;SHT31;55784;50.734;7.086;2023-09-12T11:16:14;26.17;70.37
68801;SHT31;55784;50.734;7.086;2023-09-12T11:21:52;26.23;70.39
68801;SHT31;55784;50.734;7.086;2023-09-12T11:24:22;25.87;71.05
68801;SHT31;55784;50.734;7.086;2023-09-12T11:27:20;25.97;70.86
68801;SHT31;55784;50.734;7.086;2023-09-12T11:29:47;26.27;70.38
68801;SHT31;55784;50.734;7.086;2023-09-12T11:32:26;26.33;70.05
68801;SHT31;55784;50.734;7.086;2023-09-12T11:34:52;26.35;69.83
68801;SHT31;55784;50.734;7.086;2023-09-12T11:37:25;26.51;69.94
68801;SHT31;55784;50.734;7.086;2023-09-12T11:39:55;26.64;69.29
68801;SHT31;55784;50.734;7.086;2023-09-12T11:42:23;26.96;68.73
68801;SHT31;55784;50.734;7.086;2023-09-12T11:45:15;26.59;69.72
68801;SHT31;55784;50.734;7.086;2023-09-12T11:47:43;26.75;69.05
68801;SHT31;55784;50.734;7.086;2023-09-12T11:53:02;26.78;69.08
68801;SHT31;55784;50.734;7.086;2023-09-12T11:55:33;26.10;70.75
68801;SHT31;55784;50.734;7.086;2023-09-12T11:58:00;26.01;71.13
68801;SHT31;55784;50.734;7.086;2023-09-12T12:00:26;26.28;70.35
68801;SHT31;55784;50.734;7.086;2023-09-12T12:02:57;26.35;70.05
68801;SHT31;55784;50.734;7.086;2023-09-12T12:05:23;26.65;69.32
68801;SHT31;55784;50.734;7.086;2023-09-12T12:07:49;26.74;69.51
68801;SHT31;55784;50.734;7.086;2023-09-12T12:10:16;26.76;69.57
68801;SHT31;55784;50.734;7.086;2023-09-12T12:12:43;26.92;69.31
68801;SHT31;55784;50.734;7.086;2023-09-12T12:15:10;26.85;69.42
68801;SHT31;55784;50.734;7.086;2023-09-12T12:17:41;26.59;69.86
68801;SHT31;55784;50.734;7.086;2023-09-12T12:20:08;26.71;69.23
68801;SHT31;55784;50.734;7.086;2023-09-12T12:22:36;26.91;67.96
68801;SHT31;55784;50.734;7.086;2023-09-12T12:25:09;27.02;67.12
68801;SHT31;55784;50.734;7.086;2023-09-12T12:27:39;26.96;67.49
68801;SHT31;55784;50.734;7.086;2023-09-12T12:30:08;27.25;67.39
68801;SHT31;55784;50.734;7.086;2023-09-12T12:32:39;27.32;67.07
68801;SHT31;55784;50.734;7.086;2023-09-12T12:35:05;27.16;67.23
68801;SHT31;55784;50.734;7.086;2023-09-12T12:37:36;27.06;66.91
68801;SHT31;55784;50.734;7.086;2023-09-12T12:40:02;27.06;66.90
68801;SHT31;55784;50.734;7.086;2023-09-12T12:42:37;27.36;66.07
68801;SHT31;55784;50.734;7.086;2023-09-12T12:45:11;26.94;67.34
68801;SHT31;55784;50.734;7.086;2023-09-12T12:47:36;26.59;68.00
68801;SHT31;55784;50.734;7.086;2023-09-12T12:50:07;26.44;68.35
68801;SHT31;55784;50.734;7.086;2023-09-12T12:52:33;26.48;68.25
68801;SHT31;55784;50.734;7.086;2023-09-12T12:55:09;26.72;67.59
68801;SHT31;55784;50.734;7.086;2023-09-12T12:57:38;26.91;67.13
68801;SHT31;55784;50.734;7.086;2023-09-12T13:00:12;26.86;66.87
68801;SHT31;55784;50.734;7.086;2023-09-12T13:02:39;26.99;66.68
68801;SHT31;55784;50.734;7.086;2023-09-12T13:05:19;27.23;65.47
68801;SHT31;55784;50.734;7.086;2023-09-12T13:07:45;27.23;65.58
68801;SHT31;55784;50.734;7.086;2023-09-12T13:10:11;27.02;66.14
68801;SHT31;55784;50.734;7.086;2023-09-12T13:12:36;26.92;66.03
68801;SHT31;55784;50.734;7.086;2023-09-12T13:15:05;26.98;65.06
68801;SHT31;55784;50.734;7.086;2023-09-12T13:17:31;27.13;64.76
68801;SHT31;55784;50.734;7.086;2023-09-12T13:19:56;27.12;64.86
68801;SHT31;55784;50.734;7.086;2023-09-12T13:22:22;27.10;65.38
68801;SHT31;55784;50.734;7.086;2023-09-12T13:24:47;27.20;65.37
68801;SHT31;55784;50.734;7.086;2023-09-12T13:27:13;27.22;65.33
68801;SHT31;55784;50.734;7.086;2023-09-12T13:29:38;27.45;65.16
68801;SHT31;55784;50.734;7.086;2023-09-12T13:32:07;27.45;65.13
68801;SHT31;55784;50.734;7.086;2023-09-12T13:34:33;27.51;64.90
68801;SHT31;55784;50.734;7.086;2023-09-12T13:36:59;27.42;64.54
68801;SHT31;55784;50.734;7.086;2023-09-12T13:39:25;27.42;63.56
68801;SHT31;55784;50.734;7.086;2023-09-12T13:41:53;27.07;65.58
68801;SHT31;55784;50.734;7.086;2023-09-12T13:44:23;27.00;66.36
68801;SHT31;55784;50.734;7.086;2023-09-12T13:46:48;27.09;66.15
68801;SHT31;55784;50.734;7.086;2023-09-12T13:49:14;27.12;66.10
68801;SHT31;55784;50.734;7.086;2023-09-12T13:51:42;27.23;66.16
68801;SHT31;55784;50.734;7.086;2023-09-12T13:54:08;27.29;66.18
68801;SHT31;55784;50.734;7.086;2023-09-12T13:56:41;27.42;66.22
68801;SHT31;55784;50.734;7.086;2023-09-12T13:59:06;27.43;65.92
68801;SHT31;55784;50.734;7.086;2023-09-12T14:01:32;27.30;66.26
68801;SHT31;55784;50.734;7.086;2023-09-12T14:03:57;27.13;66.61
68801;SHT31;55784;50.734;7.086;2023-09-12T14:06:23;27.47;66.35
68801;SHT31;55784;50.734;7.086;2023-09-12T14:08:48;27.30;66.39
68801;SHT31;55784;50.734;7.086;2023-09-12T14:11:13;27.19;66.02
68801;SHT31;55784;50.734;7.086;2023-09-12T14:13:39;27.33;65.73
68801;SHT31;55784;50.734;7.086;2023-09-12T14:16:04;27.09;66.61
68801;SHT31;55784;50.734;7.086;2023-09-12T14:18:30;26.85;67.58
68801;SHT31;55784;50.734;7.086;2023-09-12T14:20:55;27.17;67.15
68801;SHT31;55784;50.734;7.086;2023-09-12T14:23:20;27.19;67.13
68801;SHT31;55784;50.734;7.086;2023-09-12T14:25:46;27.16;66.41
68801;SHT31;55784;50.734;7.086;2023-09-12T14:28:11;27.12;66.62
68801;SHT31;55784;50.734;7.086;2023-09-12T14:30:37;27.02;66.71
68801;SHT31;55784;50.734;7.086;2023-09-12T14:33:03;27.15;66.62
68801;SHT31;55784;50.734;7.086;2023-09-12T14:35:29;27.16;67.02
68801;SHT31;55784;50.734;7.086;2023-09-12T14:37:54;27.46;66.41
68801;SHT31;55784;50.734;7.086;2023-09-12T14:40:20;26.81;68.06
68801;SHT31;55784;50.734;7.086;2023-09-12T14:42:45;26.88;67.84
68801;SHT31;55784;50.734;7.086;2023-09-12T14:45:11;27.05;67.73
68801;SHT31;55784;50.734;7.086;2023-09-12T14:47:36;27.23;67.33
68801;SHT31;55784;50.734;7.086;2023-09-12T14:50:02;27.32;67.07
68801;SHT31;55784;50.734;7.086;2023-09-12T14:52:27;27.26;67.43
68801;SHT31;55784;50.734;7.086;2023-09-12T14:54:53;27.33;66.85
68801;SHT31;55784;50.734;7.086;2023-09-12T14:57:19;27.10;67.35
68801;SHT31;55784;50.734;7.086;2023-09-12T14:59:45;27.26;67.25
68801;SHT31;55784;50.734;7.086;2023-09-12T15:02:11;26.96;68.09
68801;SHT31;55784;50.734;7.086;2023-09-12T15:04:36;27.09;67.73
68801;SHT31;55784;50.734;7.086;2023-09-12T15:07:02;27.10;67.60
68801;SHT31;55784;50.734;7.086;2023-09-12T15:09:28;27.35;67.20
68801;SHT31;55784;50.734;7.086;2023-09-12T15:11:53;27.25;67.32
68801;SHT31;55784;50.734;7.086;2023-09-12T15:14:18;27.15;67.63
68801;SHT31;55784;50.734;7.086;2023-09-12T15:16:43;26.96;67.94
68801;SHT31;55784;50.734;7.086;2023-09-12T15:19:09;26.89;68.00
68801;SHT31;55784;50.734;7.086;2023-09-12T15:21:35;26.48;68.92
68801;SHT31;55784;50.734;7.086;2023-09-12T15:24:00;26.45;69.02
68801;SHT31;55784;50.734;7.086;2023-09-12T15:26:25;26.33;69.13
68801;SHT31;55784;50.734;7.086;2023-09-12T15:28:51;26.41;69.16
68801;SHT31;55784;50.734;7.086;2023-09-12T15:31:16;26.41;68.81
68801;SHT31;55784;50.734;7.086;2023-09-12T15:33:42;26.38;68.82
68801;SHT31;55784;50.734;7.086;2023-09-12T15:36:07;26.33;68.94
68801;SHT31;55784;50.734;7.086;2023-09-12T15:38:32;26.28;69.02
68801;SHT31;55784;50.734;7.086;2023-09-12T15:40:58;26.37;68.77